sensor_id;sensor_type;location;lat;lon;timestamp;pressure;altitude;pressure_sealevel;temperature;humidity
10460;BME280;54412;51.206;6.888;2022-10-24T00:00:48;99991.34;;;16.50;85.18
10460;BME280;54412;51.206;6.888;2022-10-24T00:03:14;99996.19;;;16.45;85.32
10460;BME280;54412;51.206;6.888;2022-10-24T00:05:43;99985.09;;;16.40;86.11
10460;BME280;54412;51.206;6.888;2022-10-24T00:08:10;99986.06;;;16.39;85.77
10460;BME280;54412;51.206;6.888;2022-10-24T00:10:40;99990.72;;;16.46;84.69
10460;BME280;54412;51.206;6.888;2022-10-24T00:13:08;99987.25;;;16.46;84.64
10460;BME280;54412;51.206;6.888;2022-10-24T00:15:34;99986.88;;;16.50;84.30
10460;BME280;54412;51.206;6.888;2022-10-24T00:17:59;99985.31;;;16.48;84.76
10460;BME280;54412;51.206;6.888;2022-10-24T00:20:25;100001.66;;;16.43;84.67
10460;BME280;54412;51.206;6.888;2022-10-24T00:22:51;99989.91;;;16.46;84.91
10460;BME280;54412;51.206;6.888;2022-10-24T00:25:17;100009.03;;;16.51;84.35
10460;BME280;54412;51.206;6.888;2022-10-24T00:27:42;100006.50;;;16.49;84.21
10460;BME280;54412;51.206;6.888;2022-10-24T00:30:08;99998.25;;;16.52;84.32
10460;BME280;54412;51.206;6.888;2022-10-24T00:32:35;99993.41;;;16.46;84.32
10460;BME280;54412;51.206;6.888;2022-10-24T00:35:01;99988.81;;;16.48;84.12
10460;BME280;54412;51.206;6.888;2022-10-24T00:37:26;99999.72;;;16.45;84.02
10460;BME280;54412;51.206;6.888;2022-10-24T00:39:52;99990.53;;;16.49;83.82
10460;BME280;54412;51.206;6.888;2022-10-24T00:42:18;99978.97;;;16.60;83.33
10460;BME280;54412;51.206;6.888;2022-10-24T00:44:45;99980.19;;;16.56;82.90
10460;BME280;54412;51.206;6.888;2022-10-24T00:47:27;99984.09;;;16.52;83.04
10460;BME280;54412;51.206;6.888;2022-10-24T00:50:11;99991.22;;;16.51;82.69
10460;BME280;54412;51.206;6.888;2022-10-24T00:52:44;99975.91;;;16.64;81.99
10460;BME280;54412;51.206;6.888;2022-10-24T00:55:11;99977.59;;;16.65;81.68
10460;BME280;54412;51.206;6.888;2022-10-24T00:57:52;99980.28;;;16.65;81.29
10460;BME280;54412;51.206;6.888;2022-10-24T01:00:28;99972.66;;;16.61;81.50
10460;BME280;54412;51.206;6.888;2022-10-24T01:02:55;99973.50;;;16.61;81.18
10460;BME280;54412;51.206;6.888;2022-10-24T01:05:22;99963.78;;;16.51;81.84
10460;BME280;54412;51.206;6.888;2022-10-24T01:08:26;99964.81;;;16.59;81.38
10460;BME280;54412;51.206;6.888;2022-10-24T01:12:07;99964.88;;;16.48;81.53
10460;BME280;54412;51.206;6.888;2022-10-24T01:14:54;99966.06;;;16.44;82.28
10460;BME280;54412;51.206;6.888;2022-10-24T01:18:05;99954.00;;;16.40;82.19
10460;BME280;54412;51.206;6.888;2022-10-24T01:21:32;99957.88;;;16.47;81.73
10460;BME280;54412;51.206;6.888;2022-10-24T01:27:05;99946.81;;;16.52;81.23
10460;BME280;54412;51.206;6.888;2022-10-24T01:30:02;99950.50;;;16.60;80.52
10460;BME280;54412;51.206;6.888;2022-10-24T01:35:45;99943.88;;;16.55;80.48
10460;BME280;54412;51.206;6.888;2022-10-24T01:38:34;99933.56;;;16.61;79.75
10460;BME280;54412;51.206;6.888;2022-10-24T01:41:07;99938.75;;;16.63;79.03
10460;BME280;54412;51.206;6.888;2022-10-24T01:43:41;99942.31;;;16.73;78.82
10460;BME280;54412;51.206;6.888;2022-10-24T01:46:25;99928.56;;;16.68;78.40
10460;BME280;54412;51.206;6.888;2022-10-24T01:49:01;99944.16;;;16.73;78.18
10460;BME280;54412;51.206;6.888;2022-10-24T01:51:31;99940.63;;;16.72;78.27
10460;BME280;54412;51.206;6.888;2022-10-24T01:53:58;99924.22;;;16.67;78.43
10460;BME280;54412;51.206;6.888;2022-10-24T01:56:25;99925.06;;;16.67;78.32
10460;BME280;54412;51.206;6.888;2022-10-24T01:58:51;99919.06;;;16.75;78.20
10460;BME280;54412;51.206;6.888;2022-10-24T02:01:22;99915.56;;;16.75;77.34
10460;BME280;54412;51.206;6.888;2022-10-24T02:03:58;99915.72;;;16.83;76.83
10460;BME280;54412;51.206;6.888;2022-10-24T02:06:39;99909.03;;;16.88;76.65
10460;BME280;54412;51.206;6.888;2022-10-24T02:09:15;99898.78;;;16.84;76.82
10460;BME280;54412;51.206;6.888;2022-10-24T02:11:44;99902.03;;;16.87;76.58
10460;BME280;54412;51.206;6.888;2022-10-24T02:14:29;99907.31;;;16.78;76.93
10460;BME280;54412;51.206;6.888;2022-10-24T02:16:56;99892.75;;;16.82;76.79
10460;BME280;54412;51.206;6.888;2022-10-24T02:19:22;99893.00;;;16.79;76.37
10460;BME280;54412;51.206;6.888;2022-10-24T02:22:10;99886.28;;;16.75;76.31
10460;BME280;54412;51.206;6.888;2022-10-24T02:24:52;99894.94;;;16.77;76.28
10460;BME280;54412;51.206;6.888;2022-10-24T02:27:30;99896.22;;;16.73;76.54
10460;BME280;54412;51.206;6.888;2022-10-24T02:30:21;99901.84;;;16.79;75.88
10460;BME280;54412;51.206;6.888;2022-10-24T02:32:52;99901.00;;;16.79;76.35
10460;BME280;54412;51.206;6.888;2022-10-24T02:35:26;99901.41;;;16.74;76.01
10460;BME280;54412;51.206;6.888;2022-10-24T02:38:02;99920.63;;;16.78;75.89
10460;BME280;54412;51.206;6.888;2022-10-24T02:40:31;99895.38;;;16.72;76.34
10460;BME280;54412;51.206;6.888;2022-10-24T02:42:59;99883.47;;;16.76;76.10
10460;BME280;54412;51.206;6.888;2022-10-24T02:45:27;99894.66;;;16.70;76.51
10460;BME280;54412;51.206;6.888;2022-10-24T02:47:59;99895.41;;;16.82;75.63
10460;BME280;54412;51.206;6.888;2022-10-24T02:50:28;99887.97;;;16.76;75.77
10460;BME280;54412;51.206;6.888;2022-10-24T02:52:54;99896.22;;;16.73;76.12
10460;BME280;54412;51.206;6.888;2022-10-24T02:55:20;99888.66;;;16.78;75.86
10460;BME280;54412;51.206;6.888;2022-10-24T02:57:46;99890.84;;;16.63;75.90
10460;BME280;54412;51.206;6.888;2022-10-24T03:00:12;99883.03;;;16.71;76.11
10460;BME280;54412;51.206;6.888;2022-10-24T03:02:38;99883.88;;;16.71;75.72
10460;BME280;54412;51.206;6.888;2022-10-24T03:05:04;99889.19;;;16.71;75.41
10460;BME280;54412;51.206;6.888;2022-10-24T03:07:30;99878.16;;;16.76;75.47
10460;BME280;54412;51.206;6.888;2022-10-24T03:09:55;99885.28;;;16.76;75.22
10460;BME280;54412;51.206;6.888;2022-10-24T03:12:21;99877.50;;;16.84;74.90
10460;BME280;54412;51.206;6.888;2022-10-24T03:14:47;99883.06;;;16.81;75.48
10460;BME280;54412;51.206;6.888;2022-10-24T03:17:13;99878.28;;;16.75;75.34
10460;BME280;54412;51.206;6.888;2022-10-24T03:19:38;99885.72;;;16.81;75.42
10460;BME280;54412;51.206;6.888;2022-10-24T03:22:04;99880.97;;;16.84;75.03
10460;BME280;54412;51.206;6.888;2022-10-24T03:24:30;99888.66;;;16.78;75.37
10460;BME280;54412;51.206;6.888;2022-10-24T03:26:55;99880.81;;;16.76;75.23
10460;BME280;54412;51.206;6.888;2022-10-24T03:29:21;99904.50;;;16.79;75.05
10460;BME280;54412;51.206;6.888;2022-10-24T03:31:48;99891.13;;;16.69;75.71
10460;BME280;54412;51.206;6.888;2022-10-24T03:34:13;99887.25;;;16.73;75.16
10460;BME280;54412;51.206;6.888;2022-10-24T03:36:39;99883.88;;;16.71;75.15
10460;BME280;54412;51.206;6.888;2022-10-24T03:39:05;99888.66;;;16.78;74.92
10460;BME280;54412;51.206;6.888;2022-10-24T03:41:30;99892.25;;;16.67;75.49
10460;BME280;54412;51.206;6.888;2022-10-24T03:43:56;99890.34;;;16.79;74.87
10460;BME280;54412;51.206;6.888;2022-10-24T03:46:22;99891.41;;;16.66;75.53
10460;BME280;54412;51.206;6.888;2022-10-24T03:48:48;99892.25;;;16.67;75.50
10460;BME280;54412;51.206;6.888;2022-10-24T03:51:13;99894.84;;;16.78;74.74
10460;BME280;54412;51.206;6.888;2022-10-24T03:53:40;99886.59;;;16.81;74.20
10460;BME280;54412;51.206;6.888;2022-10-24T03:56:06;99883.34;;;16.78;74.00
10460;BME280;54412;51.206;6.888;2022-10-24T03:58:32;99874.91;;;16.73;74.42
10460;BME280;54412;51.206;6.888;2022-10-24T04:00:57;99887.97;;;16.76;74.22
10460;BME280;54412;51.206;6.888;2022-10-24T04:03:25;99876.78;;;16.82;74.24
10460;BME280;54412;51.206;6.888;2022-10-24T04:05:52;99887.38;;;16.72;73.83
10460;BME280;54412;51.206;6.888;2022-10-24T04:08:18;99882.56;;;16.66;74.71
10460;BME280;54412;51.206;6.888;2022-10-24T04:10:45;99892.44;;;16.75;74.15
10460;BME280;54412;51.206;6.888;2022-10-24T04:13:10;99901.78;;;16.69;74.25
10460;BME280;54412;51.206;6.888;2022-10-24T04:15:36;99891.31;;;16.78;74.11
10460;BME280;54412;51.206;6.888;2022-10-24T04:18:02;99886.28;;;16.75;74.14
10460;BME280;54412;51.206;6.888;2022-10-24T04:20:28;99890.31;;;16.69;73.92
10460;BME280;54412;51.206;6.888;2022-10-24T04:22:54;99888.47;;;16.69;74.04
10460;BME280;54412;51.206;6.888;2022-10-24T04:25:19;99887.59;;;16.59;74.23
10460;BME280;54412;51.206;6.888;2022-10-24T04:27:45;99896.56;;;16.58;74.40
10460;BME280;54412;51.206;6.888;2022-10-24T04:30:13;99906.50;;;16.56;74.64
10460;BME280;54412;51.206;6.888;2022-10-24T04:32:39;99900.84;;;16.50;74.60
10460;BME280;54412;51.206;6.888;2022-10-24T04:35:05;99901.63;;;16.61;74.24
10460;BME280;54412;51.206;6.888;2022-10-24T04:37:32;99908.91;;;16.59;74.30
10460;BME280;54412;51.206;6.888;2022-10-24T04:39:57;99908.91;;;16.59;74.03
10460;BME280;54412;51.206;6.888;2022-10-24T04:42:24;99916.31;;;16.56;73.97
10460;BME280;54412;51.206;6.888;2022-10-24T04:44:50;99902.91;;;16.46;74.79
10460;BME280;54412;51.206;6.888;2022-10-24T04:47:16;99906.44;;;16.67;73.48
10460;BME280;54412;51.206;6.888;2022-10-24T04:49:42;99906.16;;;16.50;74.26
10460;BME280;54412;51.206;6.888;2022-10-24T04:52:09;99908.97;;;16.48;74.04
10460;BME280;54412;51.206;6.888;2022-10-24T04:54:34;99911.84;;;16.56;73.84
10460;BME280;54412;51.206;6.888;2022-10-24T04:57:00;99910.84;;;16.57;74.67
10460;BME280;54412;51.206;6.888;2022-10-24T04:59:26;99912.06;;;16.74;73.14
10460;BME280;54412;51.206;6.888;2022-10-24T05:01:52;99905.66;;;16.86;72.64
10460;BME280;54412;51.206;6.888;2022-10-24T05:04:19;99911.41;;;16.82;72.67
10460;BME280;54412;51.206;6.888;2022-10-24T05:06:45;99910.50;;;16.71;72.84
10460;BME280;54412;51.206;6.888;2022-10-24T05:09:13;99911.47;;;16.70;72.77
10460;BME280;54412;51.206;6.888;2022-10-24T05:11:39;99917.53;;;16.73;72.74
10460;BME280;54412;51.206;6.888;2022-10-24T05:14:05;99919.25;;;16.83;72.21
10460;BME280;54412;51.206;6.888;2022-10-24T05:16:30;99920.34;;;16.81;72.20
10460;BME280;54412;51.206;6.888;2022-10-24T05:18:56;99921.78;;;16.64;72.56
10460;BME280;54412;51.206;6.888;2022-10-24T05:21:22;99913.00;;;16.63;73.13
10460;BME280;54412;51.206;6.888;2022-10-24T05:23:47;99921.22;;;16.60;72.28
10460;BME280;54412;51.206;6.888;2022-10-24T05:26:13;99926.31;;;16.63;72.56
10460;BME280;54412;51.206;6.888;2022-10-24T05:28:39;99927.00;;;16.65;71.97
10460;BME280;54412;51.206;6.888;2022-10-24T05:31:04;99927.53;;;16.59;72.20
10460;BME280;54412;51.206;6.888;2022-10-24T05:33:30;99918.97;;;16.56;72.28
10460;BME280;54412;51.206;6.888;2022-10-24T05:35:56;99934.00;;;16.66;70.77
10460;BME280;54412;51.206;6.888;2022-10-24T05:38:22;99920.78;;;16.55;71.46
10460;BME280;54412;51.206;6.888;2022-10-24T05:40:47;99928.91;;;16.54;71.25
10460;BME280;54412;51.206;6.888;2022-10-24T05:43:15;99931.97;;;16.49;71.53
10460;BME280;54412;51.206;6.888;2022-10-24T05:45:41;99931.47;;;16.44;71.17
10460;BME280;54412;51.206;6.888;2022-10-24T05:48:07;99935.31;;;16.51;70.67
10460;BME280;54412;51.206;6.888;2022-10-24T05:50:33;99934.97;;;16.45;70.80
10460;BME280;54412;51.206;6.888;2022-10-24T05:53:00;99937.72;;;16.54;70.37
10460;BME280;54412;51.206;6.888;2022-10-24T05:55:26;99942.25;;;16.43;70.99
10460;BME280;54412;51.206;6.888;2022-10-24T05:57:52;99945.63;;;16.45;70.22
10460;BME280;54412;51.206;6.888;2022-10-24T06:00:18;99943.47;;;16.39;70.67
10460;BME280;54412;51.206;6.888;2022-10-24T06:02:45;99947.41;;;16.55;69.46
10460;BME280;54412;51.206;6.888;2022-10-24T06:05:12;99944.00;;;16.53;69.79
10460;BME280;54412;51.206;6.888;2022-10-24T06:07:38;99954.13;;;16.39;69.93
10460;BME280;54412;51.206;6.888;2022-10-24T06:10:07;99954.25;;;16.37;69.77
10460;BME280;54412;51.206;6.888;2022-10-24T06:12:34;99961.41;;;16.37;69.83
10460;BME280;54412;51.206;6.888;2022-10-24T06:15:05;99964.75;;;16.39;70.08
10460;BME280;54412;51.206;6.888;2022-10-24T06:17:32;99964.09;;;16.57;68.78
10460;BME280;54412;51.206;6.888;2022-10-24T06:19:58;99966.56;;;16.49;69.37
10460;BME280;54412;51.206;6.888;2022-10-24T06:22:24;99966.25;;;16.63;68.62
10460;BME280;54412;51.206;6.888;2022-10-24T06:24:52;99963.41;;;16.44;69.54
10460;BME280;54412;51.206;6.888;2022-10-24T06:27:18;99964.72;;;16.50;69.35
10460;BME280;54412;51.206;6.888;2022-10-24T06:29:44;99949.34;;;16.53;69.00
10460;BME280;54412;51.206;6.888;2022-10-24T06:32:09;99961.94;;;16.51;68.87
10460;BME280;54412;51.206;6.888;2022-10-24T06:34:35;99960.53;;;16.47;68.75
10460;BME280;54412;51.206;6.888;2022-10-24T06:37:01;99970.63;;;16.53;69.02
10460;BME280;54412;51.206;6.888;2022-10-24T06:39:27;99968.63;;;16.46;69.42
10460;BME280;54412;51.206;6.888;2022-10-24T06:41:52;99970.44;;;16.45;69.69
10460;BME280;54412;51.206;6.888;2022-10-24T06:44:18;99975.50;;;16.48;69.95
10460;BME280;54412;51.206;6.888;2022-10-24T06:46:44;99978.25;;;16.58;69.46
10460;BME280;54412;51.206;6.888;2022-10-24T06:49:11;99979.25;;;16.46;69.51
10460;BME280;54412;51.206;6.888;2022-10-24T06:51:38;99988.50;;;16.62;69.11
10460;BME280;54412;51.206;6.888;2022-10-24T06:54:04;99988.75;;;16.59;69.45
10460;BME280;54412;51.206;6.888;2022-10-24T06:56:29;99997.78;;;16.68;68.79
10460;BME280;54412;51.206;6.888;2022-10-24T06:58:55;99989.13;;;16.55;69.22
10460;BME280;54412;51.206;6.888;2022-10-24T07:01:24;99987.91;;;16.59;69.16
10460;BME280;54412;51.206;6.888;2022-10-24T07:03:51;99994.38;;;16.56;69.34
10460;BME280;54412;51.206;6.888;2022-10-24T07:06:23;99998.13;;;16.43;69.89
10460;BME280;54412;51.206;6.888;2022-10-24T07:08:53;99993.38;;;16.57;69.15
10460;BME280;54412;51.206;6.888;2022-10-24T07:11:20;99990.78;;;16.67;68.90
10460;BME280;54412;51.206;6.888;2022-10-24T07:13:46;99996.16;;;16.56;69.07
10460;BME280;54412;51.206;6.888;2022-10-24T07:16:13;100001.94;;;16.61;68.91
10460;BME280;54412;51.206;6.888;2022-10-24T07:18:39;100006.03;;;16.65;68.56
10460;BME280;54412;51.206;6.888;2022-10-24T07:21:14;100009.16;;;16.70;68.65
10460;BME280;54412;51.206;6.888;2022-10-24T07:23:40;100014.72;;;16.88;68.02
10460;BME280;54412;51.206;6.888;2022-10-24T07:26:11;100022.59;;;16.68;68.34
10460;BME280;54412;51.206;6.888;2022-10-24T07:28:38;100018.72;;;16.73;68.40
10460;BME280;54412;51.206;6.888;2022-10-24T07:31:04;100028.03;;;16.88;67.85
10460;BME280;54412;51.206;6.888;2022-10-24T07:33:31;100013.72;;;17.09;66.84
10460;BME280;54412;51.206;6.888;2022-10-24T07:35:57;100019.97;;;16.99;67.32
10460;BME280;54412;51.206;6.888;2022-10-24T07:38:23;100028.31;;;17.05;66.64
10460;BME280;54412;51.206;6.888;2022-10-24T07:40:49;100029.19;;;17.15;66.40
10460;BME280;54412;51.206;6.888;2022-10-24T07:43:16;100030.88;;;17.16;65.99
10460;BME280;54412;51.206;6.888;2022-10-24T07:45:43;100037.38;;;17.23;65.52
10460;BME280;54412;51.206;6.888;2022-10-24T07:48:10;100040.44;;;17.19;65.18
10460;BME280;54412;51.206;6.888;2022-10-24T07:50:43;100033.53;;;17.16;66.17
10460;BME280;54412;51.206;6.888;2022-10-24T07:53:11;100052.16;;;17.37;65.24
10460;BME280;54412;51.206;6.888;2022-10-24T07:55:38;100042.72;;;17.53;64.99
10460;BME280;54412;51.206;6.888;2022-10-24T07:58:05;100040.84;;;17.44;64.65
10460;BME280;54412;51.206;6.888;2022-10-24T08:00:31;100045.06;;;17.47;64.43
10460;BME280;54412;51.206;6.888;2022-10-24T08:02:57;100042.06;;;17.40;64.84
10460;BME280;54412;51.206;6.888;2022-10-24T08:05:23;100045.78;;;17.49;64.50
10460;BME280;54412;51.206;6.888;2022-10-24T08:07:49;100058.50;;;17.66;64.32
10460;BME280;54412;51.206;6.888;2022-10-24T08:10:15;100060.97;;;17.58;63.57
10460;BME280;54412;51.206;6.888;2022-10-24T08:12:41;100045.50;;;17.82;63.19
10460;BME280;54412;51.206;6.888;2022-10-24T08:15:08;100049.00;;;17.92;62.34
10460;BME280;54412;51.206;6.888;2022-10-24T08:17:34;100053.53;;;17.92;62.50
10460;BME280;54412;51.206;6.888;2022-10-24T08:20:06;100043.91;;;17.70;63.14
10460;BME280;54412;51.206;6.888;2022-10-24T08:22:33;100059.03;;;17.60;62.74
10460;BME280;54412;51.206;6.888;2022-10-24T08:25:00;100059.50;;;17.74;62.48
10460;BME280;54412;51.206;6.888;2022-10-24T08:27:26;100055.97;;;17.64;62.43
10460;BME280;54412;51.206;6.888;2022-10-24T08:29:52;100055.41;;;17.61;63.39
10460;BME280;54412;51.206;6.888;2022-10-24T08:32:18;100059.69;;;17.52;62.99
10460;BME280;54412;51.206;6.888;2022-10-24T08:34:43;100054.63;;;17.49;63.18
10460;BME280;54412;51.206;6.888;2022-10-24T08:37:09;100054.22;;;17.54;63.63
10460;BME280;54412;51.206;6.888;2022-10-24T08:39:34;100057.03;;;17.52;63.29
10460;BME280;54412;51.206;6.888;2022-10-24T08:42:04;100067.13;;;17.49;63.75
10460;BME280;54412;51.206;6.888;2022-10-24T08:44:36;100054.78;;;17.48;62.76
10460;BME280;54412;51.206;6.888;2022-10-24T08:50:10;100060.22;;;17.46;63.42
10460;BME280;54412;51.206;6.888;2022-10-24T08:52:46;100056.69;;;17.46;63.40
10460;BME280;54412;51.206;6.888;2022-10-24T08:55:24;100064.91;;;17.33;63.91
10460;BME280;54412;51.206;6.888;2022-10-24T08:57:58;100057.34;;;17.38;64.03
10460;BME280;54412;51.206;6.888;2022-10-24T09:00:46;100063.41;;;17.61;62.75
10460;BME280;54412;51.206;6.888;2022-10-24T09:03:36;100072.22;;;17.61;62.87
10460;BME280;54412;51.206;6.888;2022-10-24T09:06:11;100072.19;;;17.52;63.49
10460;BME280;54412;51.206;6.888;2022-10-24T09:14:19;100063.50;;;17.50;63.60
10460;BME280;54412;51.206;6.888;2022-10-24T09:19:31;100067.88;;;17.60;63.21
10460;BME280;54412;51.206;6.888;2022-10-24T09:21:59;100072.53;;;17.68;62.91
10460;BME280;54412;51.206;6.888;2022-10-24T09:24:43;100066.22;;;17.69;62.70
10460;BME280;54412;51.206;6.888;2022-10-24T09:27:22;100083.78;;;17.71;61.98
10460;BME280;54412;51.206;6.888;2022-10-24T09:29:51;100082.75;;;17.63;62.34
10460;BME280;54412;51.206;6.888;2022-10-24T09:32:24;100072.53;;;17.68;62.37
10460;BME280;54412;51.206;6.888;2022-10-24T09:35:07;100082.75;;;17.63;62.26
10460;BME280;54412;51.206;6.888;2022-10-24T09:37:46;100076.16;;;17.57;62.14
10460;BME280;54412;51.206;6.888;2022-10-24T09:43:21;100091.47;;;17.65;62.40
10460;BME280;54412;51.206;6.888;2022-10-24T09:46:09;100084.00;;;17.59;62.84
10460;BME280;54412;51.206;6.888;2022-10-24T09:49:02;100094.53;;;17.60;62.49
10460;BME280;54412;51.206;6.888;2022-10-24T09:51:36;100096.63;;;17.57;62.64
10460;BME280;54412;51.206;6.888;2022-10-24T09:59:35;100101.16;;;17.66;62.85
10460;BME280;54412;51.206;6.888;2022-10-24T10:05:08;100122.44;;;17.87;61.82
10460;BME280;54412;51.206;6.888;2022-10-24T10:07:39;100123.84;;;17.91;62.16
10460;BME280;54412;51.206;6.888;2022-10-24T10:10:27;100117.56;;;17.92;61.54
10460;BME280;54412;51.206;6.888;2022-10-24T10:12:59;100122.28;;;17.88;61.98
10460;BME280;54412;51.206;6.888;2022-10-24T10:15:38;100130.63;;;17.95;61.75
10460;BME280;54412;51.206;6.888;2022-10-24T10:21:03;100129.81;;;18.04;61.10
10460;BME280;54412;51.206;6.888;2022-10-24T10:23:53;100131.22;;;18.08;60.95
10460;BME280;54412;51.206;6.888;2022-10-24T10:26:27;100125.91;;;18.08;61.09
10460;BME280;54412;51.206;6.888;2022-10-24T10:31:39;100131.34;;;18.06;60.75
10460;BME280;54412;51.206;6.888;2022-10-24T10:34:20;100133.56;;;18.01;61.38
10460;BME280;54412;51.206;6.888;2022-10-24T10:37:18;100130.91;;;18.01;61.50
10460;BME280;54412;51.206;6.888;2022-10-24T10:40:13;100142.25;;;17.84;61.71
10460;BME280;54412;51.206;6.888;2022-10-24T10:46:07;100145.97;;;18.02;61.08
10460;BME280;54412;51.206;6.888;2022-10-24T10:52:05;100162.31;;;17.88;61.67
10460;BME280;54412;51.206;6.888;2022-10-24T11:10:13;100177.56;;;18.07;61.04
10460;BME280;54412;51.206;6.888;2022-10-24T11:12:43;100173.06;;;18.07;61.18
10460;BME280;54412;51.206;6.888;2022-10-24T11:15:46;100174.63;;;18.10;60.83
10460;BME280;54412;51.206;6.888;2022-10-24T11:18:21;100177.50;;;17.97;61.07
10460;BME280;54412;51.206;6.888;2022-10-24T11:20:54;100174.28;;;17.94;61.27
10460;BME280;54412;51.206;6.888;2022-10-24T11:29:10;100183.47;;;18.10;61.54
10460;BME280;54412;51.206;6.888;2022-10-24T11:31:47;100175.66;;;18.18;60.89
10460;BME280;54412;51.206;6.888;2022-10-24T11:34:34;100183.47;;;18.10;61.06
10460;BME280;54412;51.206;6.888;2022-10-24T11:37:14;100187.84;;;18.11;61.05
10460;BME280;54412;51.206;6.888;2022-10-24T11:40:02;100183.09;;;18.15;60.32
10460;BME280;54412;51.206;6.888;2022-10-24T11:42:52;100181.66;;;18.11;60.72
10460;BME280;54412;51.206;6.888;2022-10-24T11:45:27;100177.13;;;18.02;61.11
10460;BME280;54412;51.206;6.888;2022-10-24T11:48:09;100193.56;;;18.07;61.39
10460;BME280;54412;51.206;6.888;2022-10-24T11:51:00;100184.47;;;18.09;61.03
10460;BME280;54412;51.206;6.888;2022-10-24T11:58:40;100182.91;;;18.07;62.02
10460;BME280;54412;51.206;6.888;2022-10-24T12:01:28;100197.03;;;17.98;62.34
10460;BME280;54412;51.206;6.888;2022-10-24T12:04:37;100189.47;;;18.03;62.69
10460;BME280;54412;51.206;6.888;2022-10-24T12:10:48;100187.88;;;17.91;62.95
10460;BME280;54412;51.206;6.888;2022-10-24T12:19:17;100197.09;;;18.07;61.55
10460;BME280;54412;51.206;6.888;2022-10-24T12:21:54;100188.50;;;18.04;62.56
10460;BME280;54412;51.206;6.888;2022-10-24T12:24:48;100198.38;;;18.13;61.51
10460;BME280;54412;51.206;6.888;2022-10-24T12:27:36;100196.28;;;18.16;61.47
10460;BME280;54412;51.206;6.888;2022-10-24T12:30:14;100208.06;;;18.04;62.72
10460;BME280;54412;51.206;6.888;2022-10-24T12:32:49;100205.63;;;18.01;63.55
10460;BME280;54412;51.206;6.888;2022-10-24T12:37:55;100199.56;;;17.99;63.85
10460;BME280;54412;51.206;6.888;2022-10-24T12:40:49;100198.09;;;18.16;63.34
10460;BME280;54412;51.206;6.888;2022-10-24T12:43:39;100200.19;;;18.12;63.25
10460;BME280;54412;51.206;6.888;2022-10-24T12:54:14;100187.06;;;18.30;63.02
10460;BME280;54412;51.206;6.888;2022-10-24T12:59:24;100193.66;;;18.35;63.20
10460;BME280;54412;51.206;6.888;2022-10-24T13:11:22;100178.28;;;18.48;62.10
10460;BME280;54412;51.206;6.888;2022-10-24T13:20:34;100178.31;;;18.58;61.20
10460;BME280;54412;51.206;6.888;2022-10-24T13:23:26;100171.53;;;18.44;61.43
10460;BME280;54412;51.206;6.888;2022-10-24T13:25:57;100158.31;;;18.43;61.12
10460;BME280;54412;51.206;6.888;2022-10-24T13:31:37;100151.53;;;18.39;61.07
10460;BME280;54412;51.206;6.888;2022-10-24T13:37:39;100160.72;;;18.55;59.81
10460;BME280;54412;51.206;6.888;2022-10-24T13:40:19;100160.44;;;18.49;59.83
10460;BME280;54412;51.206;6.888;2022-10-24T13:42:56;100167.50;;;19.17;59.35
10460;BME280;54412;51.206;6.888;2022-10-24T13:45:31;100166.78;;;19.15;58.13
10460;BME280;54412;51.206;6.888;2022-10-24T13:48:12;100164.13;;;19.05;58.59
10460;BME280;54412;51.206;6.888;2022-10-24T13:50:48;100167.09;;;18.83;59.44
10460;BME280;54412;51.206;6.888;2022-10-24T13:53:23;100161.47;;;18.86;59.76
10460;BME280;54412;51.206;6.888;2022-10-24T13:55:52;100172.88;;;18.98;58.51
10460;BME280;54412;51.206;6.888;2022-10-24T13:58:21;100176.50;;;18.87;58.85
10460;BME280;54412;51.206;6.888;2022-10-24T14:01:00;100177.91;;;19.01;59.17
10460;BME280;54412;51.206;6.888;2022-10-24T14:03:29;100174.81;;;18.86;59.10
10460;BME280;54412;51.206;6.888;2022-10-24T14:06:04;100172.16;;;18.96;58.49
10460;BME280;54412;51.206;6.888;2022-10-24T14:08:44;100166.50;;;18.89;58.72
10460;BME280;54412;51.206;6.888;2022-10-24T14:11:19;100171.16;;;18.77;59.11
10460;BME280;54412;51.206;6.888;2022-10-24T14:13:50;100171.97;;;18.78;59.13
10460;BME280;54412;51.206;6.888;2022-10-24T14:16:25;100172.56;;;18.82;58.79
10460;BME280;54412;51.206;6.888;2022-10-24T14:18:51;100160.19;;;18.61;59.54
10460;BME280;54412;51.206;6.888;2022-10-24T14:21:21;100179.28;;;18.57;59.28
10460;BME280;54412;51.206;6.888;2022-10-24T14:23:56;100179.13;;;18.58;59.20
10460;BME280;54412;51.206;6.888;2022-10-24T14:26:23;100171.97;;;18.59;59.68
10460;BME280;54412;51.206;6.888;2022-10-24T14:28:53;100185.78;;;18.83;59.21
10460;BME280;54412;51.206;6.888;2022-10-24T14:31:30;100197.31;;;18.84;59.27
10460;BME280;54412;51.206;6.888;2022-10-24T14:34:00;100198.59;;;18.80;59.29
10460;BME280;54412;51.206;6.888;2022-10-24T14:36:29;100196.06;;;18.97;58.87
10460;BME280;54412;51.206;6.888;2022-10-24T14:38:57;100197.75;;;18.89;58.42
10460;BME280;54412;51.206;6.888;2022-10-24T14:41:31;100197.31;;;18.84;58.81
10460;BME280;54412;51.206;6.888;2022-10-24T14:43:58;100200.81;;;18.84;58.49
10460;BME280;54412;51.206;6.888;2022-10-24T14:46:39;100199.56;;;18.69;58.79
10460;BME280;54412;51.206;6.888;2022-10-24T14:49:20;100198.28;;;18.73;58.88
10460;BME280;54412;51.206;6.888;2022-10-24T14:51:51;100204.44;;;18.64;59.48
10460;BME280;54412;51.206;6.888;2022-10-24T14:54:22;100203.38;;;18.76;59.72
10460;BME280;54412;51.206;6.888;2022-10-24T14:56:50;100196.44;;;18.64;60.21
10460;BME280;54412;51.206;6.888;2022-10-24T14:59:27;100205.03;;;18.77;59.90
10460;BME280;54412;51.206;6.888;2022-10-24T15:01:57;100202.81;;;18.72;59.81
10460;BME280;54412;51.206;6.888;2022-10-24T15:04:39;100204.31;;;18.65;59.98
10460;BME280;54412;51.206;6.888;2022-10-24T15:07:35;100205.13;;;18.56;60.24
10460;BME280;54412;51.206;6.888;2022-10-24T15:10:24;100211.91;;;18.60;60.22
10460;BME280;54412;51.206;6.888;2022-10-24T15:13:01;100206.44;;;18.71;59.97